sensor_id;sensor_type;location;lat;lon;timestamp;P1;durP1;ratioP1;P2;durP2;ratioP2
49980;SDS011;35871;51.594;7.138;2023-09-19T06:22:10;5.93;;;2.75;;
49980;SDS011;35871;51.594;7.138;2023-09-19T06:27:59;7.95;;;3.05;;
49980;SDS011;35871;51.594;7.138;2023-09-19T06:56:16;6.70;;;2.63;;
49980;SDS011;35871;51.594;7.138;2023-09-19T07:01:47;8.73;;;4.05;;
49980;SDS011;35871;51.594;7.138;2023-09-19T07:06:58;8.82;;;2.45;;
49980;SDS011;35871;51.594;7.138;2023-09-19T07:12:02;7.10;;;2.03;;
49980;SDS011;35871;51.594;7.138;2023-09-19T07:17:03;8.68;;;2.28;;
49980;SDS011;35871;51.594;7.138;2023-09-19T07:22:04;5.93;;;2.13;;
49980;SDS011;35871;51.594;7.138;2023-09-19T07:27:07;7.22;;;2.88;;
49980;SDS011;35871;51.594;7.138;2023-09-19T07:32:08;7.28;;;2.80;;
49980;SDS011;35871;51.594;7.138;2023-09-19T07:37:10;8.60;;;2.85;;
49980;SDS011;35871;51.594;7.138;2023-09-19T07:42:13;6.82;;;2.65;;
49980;SDS011;35871;51.594;7.138;2023-09-19T07:47:17;8.40;;;2.65;;
49980;SDS011;35871;51.594;7.138;2023-09-19T07:52:18;7.85;;;2.42;;
49980;SDS011;35871;51.594;7.138;2023-09-19T07:57:21;8.63;;;2.78;;
49980;SDS011;35871;51.594;7.138;2023-09-19T08:02:22;9.13;;;2.85;;
49980;SDS011;35871;51.594;7.138;2023-09-19T08:07:23;8.68;;;3.30;;
49980;SDS011;35871;51.594;7.138;2023-09-19T08:12:24;6.82;;;3.05;;
49980;SDS011;35871;51.594;7.138;2023-09-19T08:17:25;8.98;;;2.95;;
49980;SDS011;35871;51.594;7.138;2023-09-19T08:22:26;7.20;;;3.05;;
49980;SDS011;35871;51.594;7.138;2023-09-19T08:27:27;7.25;;;2.95;;
49980;SDS011;35871;51.594;7.138;2023-09-19T08:32:28;7.10;;;2.67;;
49980;SDS011;35871;51.594;7.138;2023-09-19T08:37:29;6.55;;;2.65;;
49980;SDS011;35871;51.594;7.138;2023-09-19T08:42:30;8.80;;;3.03;;
49980;SDS011;35871;51.594;7.138;2023-09-19T08:47:37;9.10;;;4.82;;
49980;SDS011;35871;51.594;7.138;2023-09-19T08:52:43;10.30;;;4.50;;
49980;SDS011;35871;51.594;7.138;2023-09-19T08:57:44;8.40;;;4.25;;
49980;SDS011;35871;51.594;7.138;2023-09-19T09:02:49;8.32;;;3.30;;
49980;SDS011;35871;51.594;7.138;2023-09-19T09:07:50;10.35;;;3.30;;
49980;SDS011;35871;51.594;7.138;2023-09-19T09:12:52;7.90;;;2.75;;
49980;SDS011;35871;51.594;7.138;2023-09-19T09:17:55;6.43;;;2.67;;
49980;SDS011;35871;51.594;7.138;2023-09-19T09:22:58;7.18;;;2.63;;
49980;SDS011;35871;51.594;7.138;2023-09-19T09:28:10;7.85;;;2.50;;
49980;SDS011;35871;51.594;7.138;2023-09-19T09:33:52;5.82;;;2.22;;
49980;SDS011;35871;51.594;7.138;2023-09-19T09:38:54;9.55;;;3.08;;
49980;SDS011;35871;51.594;7.138;2023-09-19T09:49:29;7.47;;;2.58;;
49980;SDS011;35871;51.594;7.138;2023-09-19T10:00:09;7.82;;;3.15;;
49980;SDS011;35871;51.594;7.138;2023-09-19T10:05:17;8.63;;;2.40;;
49980;SDS011;35871;51.594;7.138;2023-09-19T10:10:42;6.85;;;3.05;;
49980;SDS011;35871;51.594;7.138;2023-09-19T10:15:59;7.68;;;2.83;;
49980;SDS011;35871;51.594;7.138;2023-09-19T10:21:09;6.45;;;2.22;;
49980;SDS011;35871;51.594;7.138;2023-09-19T10:26:12;7.88;;;2.40;;
49980;SDS011;35871;51.594;7.138;2023-09-19T10:31:28;11.00;;;2.75;;
49980;SDS011;35871;51.594;7.138;2023-09-19T10:36:31;7.05;;;2.67;;
49980;SDS011;35871;51.594;7.138;2023-09-19T10:41:35;8.63;;;2.85;;
49980;SDS011;35871;51.594;7.138;2023-09-19T10:46:37;6.03;;;1.88;;
49980;SDS011;35871;51.594;7.138;2023-09-19T10:51:49;10.13;;;2.47;;
49980;SDS011;35871;51.594;7.138;2023-09-19T10:56:54;6.20;;;2.10;;
49980;SDS011;35871;51.594;7.138;2023-09-19T11:01:59;6.95;;;2.30;;
49980;SDS011;35871;51.594;7.138;2023-09-19T11:07:08;7.72;;;2.60;;
49980;SDS011;35871;51.594;7.138;2023-09-19T11:17:39;9.63;;;2.20;;
49980;SDS011;35871;51.594;7.138;2023-09-19T11:43:49;5.97;;;1.90;;
49980;SDS011;35871;51.594;7.138;2023-09-19T11:48:51;6.63;;;1.83;;
49980;SDS011;35871;51.594;7.138;2023-09-19T11:53:53;6.22;;;2.10;;
49980;SDS011;35871;51.594;7.138;2023-09-19T11:58:54;6.63;;;2.20;;
49980;SDS011;35871;51.594;7.138;2023-09-19T12:03:57;5.97;;;2.40;;
49980;SDS011;35871;51.594;7.138;2023-09-19T12:08:59;4.43;;;1.85;;
49980;SDS011;35871;51.594;7.138;2023-09-19T12:14:01;4.68;;;2.00;;
49980;SDS011;35871;51.594;7.138;2023-09-19T12:19:21;4.35;;;1.75;;
49980;SDS011;35871;51.594;7.138;2023-09-19T12:24:22;8.75;;;2.25;;
49980;SDS011;35871;51.594;7.138;2023-09-19T12:29:27;4.18;;;1.85;;
49980;SDS011;35871;51.594;7.138;2023-09-19T12:34:30;7.25;;;2.00;;
49980;SDS011;35871;51.594;7.138;2023-09-19T12:39:34;5.20;;;1.73;;
49980;SDS011;35871;51.594;7.138;2023-09-19T12:44:40;6.47;;;2.00;;
49980;SDS011;35871;51.594;7.138;2023-09-19T12:55:06;5.65;;;1.70;;
49980;SDS011;35871;51.594;7.138;2023-09-19T13:00:08;4.70;;;1.52;;
49980;SDS011;35871;51.594;7.138;2023-09-19T13:05:11;4.38;;;2.20;;
49980;SDS011;35871;51.594;7.138;2023-09-19T13:10:13;5.18;;;1.85;;
49980;SDS011;35871;51.594;7.138;2023-09-19T13:15:22;4.25;;;2.05;;
49980;SDS011;35871;51.594;7.138;2023-09-19T13:20:26;6.15;;;1.73;;
49980;SDS011;35871;51.594;7.138;2023-09-19T13:25:27;4.40;;;1.80;;
49980;SDS011;35871;51.594;7.138;2023-09-19T13:30:30;3.50;;;1.70;;
49980;SDS011;35871;51.594;7.138;2023-09-19T13:35:34;4.57;;;1.60;;
49980;SDS011;35871;51.594;7.138;2023-09-19T13:40:38;5.13;;;1.65;;
49980;SDS011;35871;51.594;7.138;2023-09-19T13:45:41;3.78;;;1.95;;
49980;SDS011;35871;51.594;7.138;2023-09-19T13:50:42;6.10;;;1.70;;
49980;SDS011;35871;51.594;7.138;2023-09-19T13:55:43;3.78;;;1.42;;
49980;SDS011;35871;51.594;7.138;2023-09-19T14:00:45;4.95;;;1.75;;
49980;SDS011;35871;51.594;7.138;2023-09-19T14:05:46;4.78;;;1.73;;
49980;SDS011;35871;51.594;7.138;2023-09-19T14:10:49;3.88;;;1.30;;
49980;SDS011;35871;51.594;7.138;2023-09-19T14:15:50;5.82;;;1.48;;
49980;SDS011;35871;51.594;7.138;2023-09-19T14:20:51;3.83;;;1.38;;
49980;SDS011;35871;51.594;7.138;2023-09-19T14:25:53;5.50;;;1.90;;
49980;SDS011;35871;51.594;7.138;2023-09-19T14:30:54;7.05;;;1.80;;
49980;SDS011;35871;51.594;7.138;2023-09-19T14:35:55;5.05;;;1.80;;
49980;SDS011;35871;51.594;7.138;2023-09-19T14:41:00;4.68;;;1.55;;
49980;SDS011;35871;51.594;7.138;2023-09-19T14:46:04;3.65;;;1.23;;
49980;SDS011;35871;51.594;7.138;2023-09-19T14:51:08;2.75;;;1.10;;
49980;SDS011;35871;51.594;7.138;2023-09-19T14:56:11;5.40;;;1.38;;
49980;SDS011;35871;51.594;7.138;2023-09-19T15:01:16;4.22;;;1.13;;
49980;SDS011;35871;51.594;7.138;2023-09-19T15:06:17;3.63;;;1.50;;
49980;SDS011;35871;51.594;7.138;2023-09-19T15:11:19;3.00;;;1.10;;
49980;SDS011;35871;51.594;7.138;2023-09-19T15:16:21;3.13;;;1.23;;
49980;SDS011;35871;51.594;7.138;2023-09-19T15:21:22;3.80;;;1.20;;
49980;SDS011;35871;51.594;7.138;2023-09-19T15:26:24;2.67;;;0.95;;
49980;SDS011;35871;51.594;7.138;2023-09-19T15:31:25;5.97;;;1.30;;
49980;SDS011;35871;51.594;7.138;2023-09-19T15:36:26;6.00;;;1.20;;
49980;SDS011;35871;51.594;7.138;2023-09-19T15:41:30;2.60;;;1.00;;
49980;SDS011;35871;51.594;7.138;2023-09-19T15:46:32;4.03;;;1.10;;
49980;SDS011;35871;51.594;7.138;2023-09-19T15:51:35;4.53;;;1.00;;
49980;SDS011;35871;51.594;7.138;2023-09-19T15:56:36;1.95;;;1.05;;
49980;SDS011;35871;51.594;7.138;2023-09-19T16:01:38;2.78;;;1.00;;
49980;SDS011;35871;51.594;7.138;2023-09-19T16:06:40;4.72;;;1.00;;
49980;SDS011;35871;51.594;7.138;2023-09-19T16:11:43;2.33;;;1.10;;
49980;SDS011;35871;51.594;7.138;2023-09-19T16:16:48;2.55;;;0.90;;
49980;SDS011;35871;51.594;7.138;2023-09-19T16:21:49;4.68;;;0.98;;
49980;SDS011;35871;51.594;7.138;2023-09-19T16:26:51;3.70;;;0.98;;
49980;SDS011;35871;51.594;7.138;2023-09-19T16:31:52;3.03;;;1.00;;
49980;SDS011;35871;51.594;7.138;2023-09-19T16:36:54;2.67;;;0.93;;
49980;SDS011;35871;51.594;7.138;2023-09-19T16:41:56;3.80;;;0.90;;
49980;SDS011;35871;51.594;7.138;2023-09-19T16:46:57;3.63;;;1.38;;
49980;SDS011;35871;51.594;7.138;2023-09-19T16:51:58;5.22;;;3.17;;
49980;SDS011;35871;51.594;7.138;2023-09-19T16:57:02;2.75;;;1.20;;
49980;SDS011;35871;51.594;7.138;2023-09-19T17:02:03;2.45;;;1.40;;
49980;SDS011;35871;51.594;7.138;2023-09-19T17:07:21;3.30;;;1.15;;
49980;SDS011;35871;51.594;7.138;2023-09-19T17:12:27;2.88;;;0.95;;
49980;SDS011;35871;51.594;7.138;2023-09-19T17:17:37;1.50;;;0.98;;
49980;SDS011;35871;51.594;7.138;2023-09-19T17:22:38;4.90;;;1.25;;
49980;SDS011;35871;51.594;7.138;2023-09-19T17:27:48;4.72;;;1.20;;
49980;SDS011;35871;51.594;7.138;2023-09-19T17:32:50;4.85;;;1.42;;
49980;SDS011;35871;51.594;7.138;2023-09-19T17:37:51;5.80;;;1.50;;
49980;SDS011;35871;51.594;7.138;2023-09-19T17:42:53;3.65;;;1.05;;
49980;SDS011;35871;51.594;7.138;2023-09-19T17:47:56;3.63;;;0.98;;
49980;SDS011;35871;51.594;7.138;2023-09-19T17:53:06;2.65;;;0.82;;
49980;SDS011;35871;51.594;7.138;2023-09-19T17:58:11;2.45;;;1.08;;
49980;SDS011;35871;51.594;7.138;2023-09-19T18:03:13;3.67;;;1.30;;
49980;SDS011;35871;51.594;7.138;2023-09-19T18:08:18;6.43;;;1.60;;
49980;SDS011;35871;51.594;7.138;2023-09-19T18:13:27;3.83;;;0.93;;
49980;SDS011;35871;51.594;7.138;2023-09-19T18:18:28;4.57;;;1.35;;
49980;SDS011;35871;51.594;7.138;2023-09-19T18:23:34;5.28;;;1.20;;
49980;SDS011;35871;51.594;7.138;2023-09-19T18:28:38;3.60;;;1.23;;
49980;SDS011;35871;51.594;7.138;2023-09-19T18:33:46;3.25;;;1.00;;
49980;SDS011;35871;51.594;7.138;2023-09-19T18:38:49;6.35;;;1.33;;
49980;SDS011;35871;51.594;7.138;2023-09-19T18:43:52;3.22;;;1.05;;
49980;SDS011;35871;51.594;7.138;2023-09-19T18:48:53;2.78;;;1.40;;
49980;SDS011;35871;51.594;7.138;2023-09-19T18:53:57;2.55;;;1.30;;
49980;SDS011;35871;51.594;7.138;2023-09-19T18:58:59;5.15;;;1.40;;
49980;SDS011;35871;51.594;7.138;2023-09-19T19:04:00;5.63;;;1.30;;
49980;SDS011;35871;51.594;7.138;2023-09-19T19:09:02;4.28;;;1.60;;
